This is the latest recevied weather packets stored in our database for station/object SR2WXM. If no packets are shown the sender has not sent any weather packets the latest 10 day(s).
| Time | Temp. | Humidity | Pressure | Rain* | Wind** | Luminosity | Snow |
|---|---|---|---|---|---|---|---|
| 1777698001 | 8.89° C | 80% | 1022.6 hPa | 0 mm | - | - | - |
| 1777697102 | 7.78° C | 86% | 1022.6 hPa | 0 mm | - | - | - |
| 1777696202 | 6.67° C | 89% | 1022.6 hPa | 0 mm | - | - | - |
| 1777695302 | 6.67° C | 83% | 1022.3 hPa | 0 mm | - | - | - |
| 1777694403 | 5.56° C | 89% | 1022.6 hPa | 0 mm | - | - | - |
| 1777693502 | 5° C | 95% | 1022.6 hPa | 0 mm | - | - | - |
| 1777692602 | 3.89° C | 99% | 1022.6 hPa | 0 mm | - | - | - |
| 1777691702 | 3.89° C | 98% | 1022.6 hPa | 0 mm | - | - | - |
| 1777690801 | 3.89° C | 97% | 1022.6 hPa | 0 mm | - | - | - |
| 1777689903 | 3.89° C | 95% | 1022.6 hPa | 0 mm | - | - | - |
| 1777689002 | 3.89° C | 96% | 1022.6 hPa | 0 mm | - | - | - |
| 1777688103 | 3.89° C | 92% | 1022.6 hPa | 0 mm | - | - | - |
| 1777687202 | 5° C | 94% | 1022.6 hPa | 0 mm | - | - | - |
| 1777686302 | 3.89° C | 92% | 1022.6 hPa | 0 mm | - | - | - |
| 1777685403 | 5° C | 89% | 1022.6 hPa | 0 mm | - | - | - |
| 1777684502 | 5° C | 88% | 1022.6 hPa | 0 mm | - | - | - |
| 1777683601 | 5.56° C | 86% | 1022.6 hPa | 0 mm | - | - | - |
| 1777682702 | 6.67° C | 83% | 1022.6 hPa | 0 mm | - | - | - |
| 1777681802 | 5.56° C | 85% | 1022.6 hPa | 0 mm | - | - | - |
| 1777680902 | 6.67° C | 85% | 1022.6 hPa | 0 mm | - | - | - |
| 1777680002 | 5.56° C | 86% | 1022.6 hPa | 0 mm | - | - | - |
| 1777679102 | 6.67° C | 80% | 1022.6 hPa | 0 mm | - | - | - |
| 1777678201 | 6.67° C | 78% | 1022.6 hPa | 0 mm | - | - | - |
| 1777677301 | 6.67° C | 77% | 1023 hPa | 0 mm | - | - | - |
| 1777676402 | 7.78° C | 73% | 1023 hPa | 0 mm | - | - | - |
* Rain latest hour (hover to see other rain measurements)
** Current wind speed in m/s (hover to see current wind gust speed)